Dinslaken/Schwarze Heide Airport

EDLD · North Rhine-Westphalia, 德国

罗盘
风向 的 风向 160° Dinslaken/Schwarze Heide Airport 8/26
风: 9 kt, 3 beaufort

2 kt

9 kt
改变
0 1.000 2.000 3.000 4.000 5.000
CAVOK
METAR EDDL 261520Z AUTO 16009KT CAVOK 09/05 Q1029 NOSIG

METAR Dinslaken/Schwarze Heide Airport - EDLD

Dinslaken/Schwarze Heide Airport是,德国中的小机场。 该机场有一条跑道: 8/26. 该领域的国际民航组织标志是EDLD.

这份报告是针对2022年11月26日 16:20, 当地时间在Düsseldorf Airport进行的。

机场观察

风向为160°,速度为9 kt。

天气为CAVOK。这意味着在5.000 ft或MSA(最低安全高度)以下(以较高者为准)以下没有云。这也意味着没有观测到积雨云或高耸的积云,可见度为10 km 或者更多或更高。此外,不会有雾,降雨或其他重要天气。

温度为9 °C,阵风为5 °C。 露点为5 °C,相对湿度为76%。 海平面上的气压为1029 hPa (QNH)。

白天

今天,太阳从08:08升起,在16:30降落。 这适用于Dinslaken/Schwarze Heide Airport,世界夏令时可能有所不同。 当地时间与世界标准时间之间的时差为+1 小时。 当前,没有夏令时有效。

公司介绍

我们没有关于这个机场的公司信息。

体会

到Vliegles.nl去找飞行课程,跳伞和其他飞行体验。 浏览页面,了解Dinslaken/Schwarze Heide Airport附近所有可用的活动。 你也可以使用搜索功能来寻找你所在地附近的特定飞行课程、跳伞或其他飞行体验。

跑道

Id 标题 侧风 逆风 侧风 %
8/26 084°-264° 9 kt 2 kt 97 %

逆风成分最大的方向会被突出显示,并用于横风计算。 这并不一定意味着这个方向在使用。

温度 & 天气

温度 9 °C
露点 5 °C
相对湿度 76%
风寒 5 °C
Kp-index 2 (0-9)

白天

日出
08:07 (15:29)
中午
12:20
日落
16:32

小工具

你想在你的网站上有一个关于Dinslaken/Schwarze Heide Airport的当前航空天气(METAR)的小部件吗?

显示HTML代码

我们和第三方通过cookies跟踪您在我们网站上的互联网行为。如果你继续,我们认为你同意我们的饼干政策